sensor_id;sensor_type;location;lat;lon;timestamp;temperature;humidity
65582;DHT22;52231;40.090;18.348;2022-10-16T00:01:43;12.10;90.50
65582;DHT22;52231;40.090;18.348;2022-10-16T00:04:12;12.10;90.50
65582;DHT22;52231;40.090;18.348;2022-10-16T00:06:40;12.10;90.60
65582;DHT22;52231;40.090;18.348;2022-10-16T00:09:08;12.10;90.70
65582;DHT22;52231;40.090;18.348;2022-10-16T00:11:38;12.00;90.70
65582;DHT22;52231;40.090;18.348;2022-10-16T00:14:10;12.00;90.70
65582;DHT22;52231;40.090;18.348;2022-10-16T00:16:38;12.00;90.60
65582;DHT22;52231;40.090;18.348;2022-10-16T00:19:07;11.90;90.50
65582;DHT22;52231;40.090;18.348;2022-10-16T00:21:35;11.90;90.60
65582;DHT22;52231;40.090;18.348;2022-10-16T00:24:21;11.90;90.60
65582;DHT22;52231;40.090;18.348;2022-10-16T00:26:50;11.90;90.50
65582;DHT22;52231;40.090;18.348;2022-10-16T00:29:18;11.80;90.40
65582;DHT22;52231;40.090;18.348;2022-10-16T00:31:46;11.80;90.20
65582;DHT22;52231;40.090;18.348;2022-10-16T00:34:14;11.80;90.10
65582;DHT22;52231;40.090;18.348;2022-10-16T00:36:43;11.70;90.10
65582;DHT22;52231;40.090;18.348;2022-10-16T00:39:11;11.70;90.10
65582;DHT22;52231;40.090;18.348;2022-10-16T00:41:39;11.60;90.10
65582;DHT22;52231;40.090;18.348;2022-10-16T00:44:42;11.60;90.10
65582;DHT22;52231;40.090;18.348;2022-10-16T00:47:16;11.70;90.30
65582;DHT22;52231;40.090;18.348;2022-10-16T00:49:47;11.70;90.50
65582;DHT22;52231;40.090;18.348;2022-10-16T00:52:16;11.70;90.60
65582;DHT22;52231;40.090;18.348;2022-10-16T00:54:44;11.60;90.70
65582;DHT22;52231;40.090;18.348;2022-10-16T00:57:14;11.70;90.70
65582;DHT22;52231;40.090;18.348;2022-10-16T00:59:42;11.60;90.80
65582;DHT22;52231;40.090;18.348;2022-10-16T01:02:13;11.70;90.90
65582;DHT22;52231;40.090;18.348;2022-10-16T01:04:45;11.70;90.90
65582;DHT22;52231;40.090;18.348;2022-10-16T01:10:38;11.60;91.10
65582;DHT22;52231;40.090;18.348;2022-10-16T01:13:35;11.70;91.10
65582;DHT22;52231;40.090;18.348;2022-10-16T01:16:15;11.60;91.10
65582;DHT22;52231;40.090;18.348;2022-10-16T01:21:48;11.60;91.00
65582;DHT22;52231;40.090;18.348;2022-10-16T01:24:33;11.50;90.80
65582;DHT22;52231;40.090;18.348;2022-10-16T01:27:30;11.50;90.80
65582;DHT22;52231;40.090;18.348;2022-10-16T01:35:36;11.40;91.00
65582;DHT22;52231;40.090;18.348;2022-10-16T01:38:09;11.50;91.20
65582;DHT22;52231;40.090;18.348;2022-10-16T01:40:45;11.50;91.20
65582;DHT22;52231;40.090;18.348;2022-10-16T01:43:31;11.50;91.30
65582;DHT22;52231;40.090;18.348;2022-10-16T01:46:19;11.50;91.40
65582;DHT22;52231;40.090;18.348;2022-10-16T01:48:48;11.50;91.40
65582;DHT22;52231;40.090;18.348;2022-10-16T01:51:18;11.40;91.30
65582;DHT22;52231;40.090;18.348;2022-10-16T01:53:52;11.40;91.30
65582;DHT22;52231;40.090;18.348;2022-10-16T01:56:22;11.30;91.30
65582;DHT22;52231;40.090;18.348;2022-10-16T01:59:18;11.30;91.30
65582;DHT22;52231;40.090;18.348;2022-10-16T02:01:50;11.30;91.30
65582;DHT22;52231;40.090;18.348;2022-10-16T02:04:36;11.30;91.30
65582;DHT22;52231;40.090;18.348;2022-10-16T02:07:06;11.30;91.40
65582;DHT22;52231;40.090;18.348;2022-10-16T02:09:34;11.30;91.40
65582;DHT22;52231;40.090;18.348;2022-10-16T02:12:46;11.30;91.40
65582;DHT22;52231;40.090;18.348;2022-10-16T02:14:55;11.30;91.40
65582;DHT22;52231;40.090;18.348;2022-10-16T02:17:23;11.30;91.40
65582;DHT22;52231;40.090;18.348;2022-10-16T02:19:54;11.30;91.40
65582;DHT22;52231;40.090;18.348;2022-10-16T02:22:27;11.20;91.40
65582;DHT22;52231;40.090;18.348;2022-10-16T02:27:51;11.20;91.50
65582;DHT22;52231;40.090;18.348;2022-10-16T02:30:39;11.20;91.50
65582;DHT22;52231;40.090;18.348;2022-10-16T02:33:10;11.20;91.60
65582;DHT22;52231;40.090;18.348;2022-10-16T02:35:42;11.10;91.70
65582;DHT22;52231;40.090;18.348;2022-10-16T02:38:11;11.20;91.80
65582;DHT22;52231;40.090;18.348;2022-10-16T02:40:40;11.20;91.90
65582;DHT22;52231;40.090;18.348;2022-10-16T02:43:08;11.20;92.00
65582;DHT22;52231;40.090;18.348;2022-10-16T02:45:37;11.20;92.00
65582;DHT22;52231;40.090;18.348;2022-10-16T02:48:06;11.20;91.90
65582;DHT22;52231;40.090;18.348;2022-10-16T02:50:34;11.10;91.80
65582;DHT22;52231;40.090;18.348;2022-10-16T02:53:02;11.00;91.70
65582;DHT22;52231;40.090;18.348;2022-10-16T02:55:30;11.00;91.60
65582;DHT22;52231;40.090;18.348;2022-10-16T02:57:58;10.90;91.60
65582;DHT22;52231;40.090;18.348;2022-10-16T03:00:26;10.90;91.60
65582;DHT22;52231;40.090;18.348;2022-10-16T03:02:54;11.00;91.70
65582;DHT22;52231;40.090;18.348;2022-10-16T03:05:22;10.90;91.70
65582;DHT22;52231;40.090;18.348;2022-10-16T03:07:50;10.90;91.70
65582;DHT22;52231;40.090;18.348;2022-10-16T03:10:20;10.90;91.70
65582;DHT22;52231;40.090;18.348;2022-10-16T03:12:48;10.80;91.70
65582;DHT22;52231;40.090;18.348;2022-10-16T03:15:16;10.80;91.60
65582;DHT22;52231;40.090;18.348;2022-10-16T03:17:44;10.80;91.70
65582;DHT22;52231;40.090;18.348;2022-10-16T03:20:12;10.90;91.90
65582;DHT22;52231;40.090;18.348;2022-10-16T03:22:40;10.90;92.00
65582;DHT22;52231;40.090;18.348;2022-10-16T03:25:08;10.90;92.00
65582;DHT22;52231;40.090;18.348;2022-10-16T03:27:36;10.90;92.10
65582;DHT22;52231;40.090;18.348;2022-10-16T03:30:05;10.90;92.20
65582;DHT22;52231;40.090;18.348;2022-10-16T03:32:33;10.90;92.20
65582;DHT22;52231;40.090;18.348;2022-10-16T03:35:02;10.90;92.20
65582;DHT22;52231;40.090;18.348;2022-10-16T03:37:30;10.80;92.20
65582;DHT22;52231;40.090;18.348;2022-10-16T03:39:59;10.80;92.20
65582;DHT22;52231;40.090;18.348;2022-10-16T03:42:27;10.80;92.10
65582;DHT22;52231;40.090;18.348;2022-10-16T03:44:55;10.80;92.20
65582;DHT22;52231;40.090;18.348;2022-10-16T03:47:23;10.80;92.30
65582;DHT22;52231;40.090;18.348;2022-10-16T03:49:51;10.80;92.40
65582;DHT22;52231;40.090;18.348;2022-10-16T03:52:19;10.80;92.40
65582;DHT22;52231;40.090;18.348;2022-10-16T03:54:47;10.80;92.40
65582;DHT22;52231;40.090;18.348;2022-10-16T03:57:16;10.80;92.40
65582;DHT22;52231;40.090;18.348;2022-10-16T03:59:44;10.80;92.40
65582;DHT22;52231;40.090;18.348;2022-10-16T04:02:13;10.70;92.40
65582;DHT22;52231;40.090;18.348;2022-10-16T04:04:41;10.70;92.30
65582;DHT22;52231;40.090;18.348;2022-10-16T04:07:59;10.60;92.30
65582;DHT22;52231;40.090;18.348;2022-10-16T04:11:31;10.60;92.30
65582;DHT22;52231;40.090;18.348;2022-10-16T04:22:57;10.70;92.80
65582;DHT22;52231;40.090;18.348;2022-10-16T04:25:25;10.70;92.80
65582;DHT22;52231;40.090;18.348;2022-10-16T04:27:54;10.70;92.80
65582;DHT22;52231;40.090;18.348;2022-10-16T04:30:22;10.70;92.90
65582;DHT22;52231;40.090;18.348;2022-10-16T04:32:51;10.70;92.90
65582;DHT22;52231;40.090;18.348;2022-10-16T04:35:21;10.70;92.90
65582;DHT22;52231;40.090;18.348;2022-10-16T04:37:49;10.70;92.90
65582;DHT22;52231;40.090;18.348;2022-10-16T04:40:18;10.70;92.90
65582;DHT22;52231;40.090;18.348;2022-10-16T04:42:46;10.70;92.90
65582;DHT22;52231;40.090;18.348;2022-10-16T04:45:14;10.60;92.90
65582;DHT22;52231;40.090;18.348;2022-10-16T04:47:46;10.60;92.80
65582;DHT22;52231;40.090;18.348;2022-10-16T04:50:14;10.50;92.80
65582;DHT22;52231;40.090;18.348;2022-10-16T04:53:01;10.50;92.80
65582;DHT22;52231;40.090;18.348;2022-10-16T04:55:29;10.50;92.70
65582;DHT22;52231;40.090;18.348;2022-10-16T04:57:57;10.50;92.70
65582;DHT22;52231;40.090;18.348;2022-10-16T05:00:25;10.40;92.70
65582;DHT22;52231;40.090;18.348;2022-10-16T05:02:53;10.40;92.70
65582;DHT22;52231;40.090;18.348;2022-10-16T05:05:21;10.40;92.70
65582;DHT22;52231;40.090;18.348;2022-10-16T05:08:05;10.40;92.70
65582;DHT22;52231;40.090;18.348;2022-10-16T05:10:36;10.50;92.80
65582;DHT22;52231;40.090;18.348;2022-10-16T05:13:05;10.50;92.90
65582;DHT22;52231;40.090;18.348;2022-10-16T05:15:33;10.50;92.90
65582;DHT22;52231;40.090;18.348;2022-10-16T05:18:01;10.60;93.00
65582;DHT22;52231;40.090;18.348;2022-10-16T05:20:29;10.80;93.00
65582;DHT22;52231;40.090;18.348;2022-10-16T05:22:57;10.80;93.00
65582;DHT22;52231;40.090;18.348;2022-10-16T05:25:25;11.00;93.10
65582;DHT22;52231;40.090;18.348;2022-10-16T05:27:53;11.10;93.10
65582;DHT22;52231;40.090;18.348;2022-10-16T05:30:21;11.20;93.10
65582;DHT22;52231;40.090;18.348;2022-10-16T05:32:50;11.30;93.10
65582;DHT22;52231;40.090;18.348;2022-10-16T05:35:20;11.50;93.20
65582;DHT22;52231;40.090;18.348;2022-10-16T05:37:48;11.70;93.10
65582;DHT22;52231;40.090;18.348;2022-10-16T05:40:20;11.80;93.10
65582;DHT22;52231;40.090;18.348;2022-10-16T05:42:48;11.90;93.00
65582;DHT22;52231;40.090;18.348;2022-10-16T05:45:16;12.00;92.80
65582;DHT22;52231;40.090;18.348;2022-10-16T05:47:44;12.20;92.60
65582;DHT22;52231;40.090;18.348;2022-10-16T05:50:12;12.40;92.40
65582;DHT22;52231;40.090;18.348;2022-10-16T05:52:41;12.60;92.30
65582;DHT22;52231;40.090;18.348;2022-10-16T05:55:09;12.90;92.20
65582;DHT22;52231;40.090;18.348;2022-10-16T05:57:37;13.20;91.90
65582;DHT22;52231;40.090;18.348;2022-10-16T06:00:05;13.50;91.60
65582;DHT22;52231;40.090;18.348;2022-10-16T06:02:39;13.70;91.20
65582;DHT22;52231;40.090;18.348;2022-10-16T06:05:07;13.90;90.70
65582;DHT22;52231;40.090;18.348;2022-10-16T06:07:35;14.10;90.50
65582;DHT22;52231;40.090;18.348;2022-10-16T06:10:04;14.30;90.10
65582;DHT22;52231;40.090;18.348;2022-10-16T06:12:33;14.40;89.50
65582;DHT22;52231;40.090;18.348;2022-10-16T06:15:01;14.50;89.10
65582;DHT22;52231;40.090;18.348;2022-10-16T06:17:29;14.70;88.80
65582;DHT22;52231;40.090;18.348;2022-10-16T06:19:58;14.90;88.50
65582;DHT22;52231;40.090;18.348;2022-10-16T06:22:26;15.10;88.30
65582;DHT22;52231;40.090;18.348;2022-10-16T06:24:54;15.30;88.10
65582;DHT22;52231;40.090;18.348;2022-10-16T06:27:22;15.50;87.80
65582;DHT22;52231;40.090;18.348;2022-10-16T06:29:50;15.70;87.50
65582;DHT22;52231;40.090;18.348;2022-10-16T06:32:18;15.90;87.10
65582;DHT22;52231;40.090;18.348;2022-10-16T06:34:46;16.30;86.40
65582;DHT22;52231;40.090;18.348;2022-10-16T06:37:17;16.70;85.70
65582;DHT22;52231;40.090;18.348;2022-10-16T06:39:45;16.90;85.00
65582;DHT22;52231;40.090;18.348;2022-10-16T06:42:13;17.30;84.20
65582;DHT22;52231;40.090;18.348;2022-10-16T06:44:42;17.60;83.40
65582;DHT22;52231;40.090;18.348;2022-10-16T06:47:10;17.90;82.80
65582;DHT22;52231;40.090;18.348;2022-10-16T06:49:38;18.20;82.60
65582;DHT22;52231;40.090;18.348;2022-10-16T06:52:06;18.40;82.10
65582;DHT22;52231;40.090;18.348;2022-10-16T06:54:34;18.70;81.60
65582;DHT22;52231;40.090;18.348;2022-10-16T06:57:06;19.00;80.90
65582;DHT22;52231;40.090;18.348;2022-10-16T06:59:34;19.10;80.10
65582;DHT22;52231;40.090;18.348;2022-10-16T07:02:03;19.30;79.50
65582;DHT22;52231;40.090;18.348;2022-10-16T07:04:31;19.60;79.10
65582;DHT22;52231;40.090;18.348;2022-10-16T07:07:00;19.70;78.80
65582;DHT22;52231;40.090;18.348;2022-10-16T07:09:29;19.90;77.90
65582;DHT22;52231;40.090;18.348;2022-10-16T07:12:02;20.00;77.30
65582;DHT22;52231;40.090;18.348;2022-10-16T07:14:30;20.20;77.10
65582;DHT22;52231;40.090;18.348;2022-10-16T07:16:58;20.40;76.90
65582;DHT22;52231;40.090;18.348;2022-10-16T07:19:27;20.50;76.50
65582;DHT22;52231;40.090;18.348;2022-10-16T07:21:59;20.80;76.10
65582;DHT22;52231;40.090;18.348;2022-10-16T07:24:27;21.00;75.60
65582;DHT22;52231;40.090;18.348;2022-10-16T07:26:55;21.20;75.20
65582;DHT22;52231;40.090;18.348;2022-10-16T07:29:23;21.30;74.60
65582;DHT22;52231;40.090;18.348;2022-10-16T07:31:52;21.40;74.10
65582;DHT22;52231;40.090;18.348;2022-10-16T07:34:20;21.60;74.20
65582;DHT22;52231;40.090;18.348;2022-10-16T07:36:50;21.70;73.90
65582;DHT22;52231;40.090;18.348;2022-10-16T07:39:18;21.80;73.40
65582;DHT22;52231;40.090;18.348;2022-10-16T07:41:46;21.90;73.30
65582;DHT22;52231;40.090;18.348;2022-10-16T07:44:15;22.00;73.40
65582;DHT22;52231;40.090;18.348;2022-10-16T07:46:44;22.10;72.90
65582;DHT22;52231;40.090;18.348;2022-10-16T07:49:12;22.30;73.00
65582;DHT22;52231;40.090;18.348;2022-10-16T07:51:40;22.40;72.80
65582;DHT22;52231;40.090;18.348;2022-10-16T07:54:09;22.50;72.30
65582;DHT22;52231;40.090;18.348;2022-10-16T07:56:37;22.60;71.80
65582;DHT22;52231;40.090;18.348;2022-10-16T07:59:06;22.80;71.40
65582;DHT22;52231;40.090;18.348;2022-10-16T08:01:36;22.80;70.30
65582;DHT22;52231;40.090;18.348;2022-10-16T08:04:05;22.80;70.70
65582;DHT22;52231;40.090;18.348;2022-10-16T08:06:38;22.80;70.40
65582;DHT22;52231;40.090;18.348;2022-10-16T08:09:07;22.80;70.40
65582;DHT22;52231;40.090;18.348;2022-10-16T08:11:35;22.80;70.60
65582;DHT22;52231;40.090;18.348;2022-10-16T08:14:03;22.90;70.40
65582;DHT22;52231;40.090;18.348;2022-10-16T08:16:34;22.90;70.20
65582;DHT22;52231;40.090;18.348;2022-10-16T08:19:02;22.80;70.60
65582;DHT22;52231;40.090;18.348;2022-10-16T08:21:30;23.00;70.60
65582;DHT22;52231;40.090;18.348;2022-10-16T08:23:58;23.10;69.00
65582;DHT22;52231;40.090;18.348;2022-10-16T08:26:28;23.30;69.10
65582;DHT22;52231;40.090;18.348;2022-10-16T08:28:56;23.40;68.00
65582;DHT22;52231;40.090;18.348;2022-10-16T08:31:26;23.50;67.40
65582;DHT22;52231;40.090;18.348;2022-10-16T08:33:55;23.50;66.90
65582;DHT22;52231;40.090;18.348;2022-10-16T08:36:23;23.60;67.00
65582;DHT22;52231;40.090;18.348;2022-10-16T08:38:51;23.60;66.40
65582;DHT22;52231;40.090;18.348;2022-10-16T08:41:55;23.60;65.60
65582;DHT22;52231;40.090;18.348;2022-10-16T08:47:02;23.70;66.10
65582;DHT22;52231;40.090;18.348;2022-10-16T08:49:33;23.80;65.20
65582;DHT22;52231;40.090;18.348;2022-10-16T08:52:02;23.70;65.50
65582;DHT22;52231;40.090;18.348;2022-10-16T08:54:34;23.60;65.60
65582;DHT22;52231;40.090;18.348;2022-10-16T08:57:16;23.70;65.00
65582;DHT22;52231;40.090;18.348;2022-10-16T08:59:46;24.10;64.70
65582;DHT22;52231;40.090;18.348;2022-10-16T09:02:29;24.30;63.00
65582;DHT22;52231;40.090;18.348;2022-10-16T09:05:22;24.30;63.20
65582;DHT22;52231;40.090;18.348;2022-10-16T09:07:55;24.40;62.90
65582;DHT22;52231;40.090;18.348;2022-10-16T09:10:54;24.30;63.40
65582;DHT22;52231;40.090;18.348;2022-10-16T09:16:27;24.40;62.30
65582;DHT22;52231;40.090;18.348;2022-10-16T09:21:25;24.40;62.00
65582;DHT22;52231;40.090;18.348;2022-10-16T09:23:58;24.70;61.30
65582;DHT22;52231;40.090;18.348;2022-10-16T09:26:27;24.70;60.40
65582;DHT22;52231;40.090;18.348;2022-10-16T09:28:55;24.50;59.20
65582;DHT22;52231;40.090;18.348;2022-10-16T09:31:23;24.40;59.80
65582;DHT22;52231;40.090;18.348;2022-10-16T09:33:55;24.50;59.20
65582;DHT22;52231;40.090;18.348;2022-10-16T09:36:26;24.50;59.70
65582;DHT22;52231;40.090;18.348;2022-10-16T09:39:25;24.60;58.70
65582;DHT22;52231;40.090;18.348;2022-10-16T09:41:53;24.60;59.20
65582;DHT22;52231;40.090;18.348;2022-10-16T09:44:25;24.60;58.20
65582;DHT22;52231;40.090;18.348;2022-10-16T09:47:10;24.80;58.60
65582;DHT22;52231;40.090;18.348;2022-10-16T09:49:54;24.90;57.90
65582;DHT22;52231;40.090;18.348;2022-10-16T09:52:24;25.00;56.60
65582;DHT22;52231;40.090;18.348;2022-10-16T09:54:57;25.00;55.80
65582;DHT22;52231;40.090;18.348;2022-10-16T09:57:26;25.10;56.00
65582;DHT22;52231;40.090;18.348;2022-10-16T09:59:56;25.20;55.30
65582;DHT22;52231;40.090;18.348;2022-10-16T10:02:34;25.10;55.00
65582;DHT22;52231;40.090;18.348;2022-10-16T10:05:06;25.20;54.40
65582;DHT22;52231;40.090;18.348;2022-10-16T10:07:45;25.30;53.70
65582;DHT22;52231;40.090;18.348;2022-10-16T10:10:21;25.10;54.20
65582;DHT22;52231;40.090;18.348;2022-10-16T10:12:50;24.90;53.50
65582;DHT22;52231;40.090;18.348;2022-10-16T10:15:18;24.90;55.40
65582;DHT22;52231;40.090;18.348;2022-10-16T10:17:54;24.90;54.90
65582;DHT22;52231;40.090;18.348;2022-10-16T10:20:31;24.90;54.20
65582;DHT22;52231;40.090;18.348;2022-10-16T10:23:21;25.00;55.60
65582;DHT22;52231;40.090;18.348;2022-10-16T10:29:12;25.00;57.10
65582;DHT22;52231;40.090;18.348;2022-10-16T10:32:00;25.30;56.60
65582;DHT22;52231;40.090;18.348;2022-10-16T10:34:57;25.40;55.70
65582;DHT22;52231;40.090;18.348;2022-10-16T10:42:57;25.30;56.30
65582;DHT22;52231;40.090;18.348;2022-10-16T10:45:38;25.50;56.00
65582;DHT22;52231;40.090;18.348;2022-10-16T10:48:33;25.40;55.80
65582;DHT22;52231;40.090;18.348;2022-10-16T10:51:29;25.40;54.90
65582;DHT22;52231;40.090;18.348;2022-10-16T10:54:23;25.40;55.20
65582;DHT22;52231;40.090;18.348;2022-10-16T10:57:10;25.30;53.70
65582;DHT22;52231;40.090;18.348;2022-10-16T11:07:47;25.40;56.10
65582;DHT22;52231;40.090;18.348;2022-10-16T11:10:26;25.40;54.10
65582;DHT22;52231;40.090;18.348;2022-10-16T11:12:59;25.40;53.80
65582;DHT22;52231;40.090;18.348;2022-10-16T11:15:34;25.40;54.70
65582;DHT22;52231;40.090;18.348;2022-10-16T11:21:09;25.50;54.80
65582;DHT22;52231;40.090;18.348;2022-10-16T11:23:43;25.30;54.00
65582;DHT22;52231;40.090;18.348;2022-10-16T11:26:23;25.20;54.80
65582;DHT22;52231;40.090;18.348;2022-10-16T11:28:56;25.40;55.70
65582;DHT22;52231;40.090;18.348;2022-10-16T11:31:44;25.40;55.60
65582;DHT22;52231;40.090;18.348;2022-10-16T11:34:31;25.30;54.30
65582;DHT22;52231;40.090;18.348;2022-10-16T11:37:25;25.30;55.60
65582;DHT22;52231;40.090;18.348;2022-10-16T11:40:02;25.30;55.50
65582;DHT22;52231;40.090;18.348;2022-10-16T11:42:41;25.30;55.80
65582;DHT22;52231;40.090;18.348;2022-10-16T11:45:27;25.20;57.10
65582;DHT22;52231;40.090;18.348;2022-10-16T11:48:23;25.10;55.50
65582;DHT22;52231;40.090;18.348;2022-10-16T11:51:14;24.70;54.10
65582;DHT22;52231;40.090;18.348;2022-10-16T11:56:30;24.50;56.80
65582;DHT22;52231;40.090;18.348;2022-10-16T12:01:51;24.60;57.10
65582;DHT22;52231;40.090;18.348;2022-10-16T12:04:33;24.70;56.70
65582;DHT22;52231;40.090;18.348;2022-10-16T12:07:08;24.60;55.90
65582;DHT22;52231;40.090;18.348;2022-10-16T12:09:40;24.60;56.20
65582;DHT22;52231;40.090;18.348;2022-10-16T12:12:26;24.80;56.90
65582;DHT22;52231;40.090;18.348;2022-10-16T12:15:03;24.80;57.40
65582;DHT22;52231;40.090;18.348;2022-10-16T12:17:49;24.70;57.80
65582;DHT22;52231;40.090;18.348;2022-10-16T12:28:17;24.60;59.20
65582;DHT22;52231;40.090;18.348;2022-10-16T12:30:56;24.70;58.30
65582;DHT22;52231;40.090;18.348;2022-10-16T12:33:37;24.70;57.80
65582;DHT22;52231;40.090;18.348;2022-10-16T12:36:15;24.60;58.80
65582;DHT22;52231;40.090;18.348;2022-10-16T12:38:54;24.50;59.00
65582;DHT22;52231;40.090;18.348;2022-10-16T12:41:33;24.30;57.50
65582;DHT22;52231;40.090;18.348;2022-10-16T12:44:23;24.20;59.00
65582;DHT22;52231;40.090;18.348;2022-10-16T12:46:54;24.10;58.70
65582;DHT22;52231;40.090;18.348;2022-10-16T12:49:23;24.10;58.60
65582;DHT22;52231;40.090;18.348;2022-10-16T12:51:58;24.00;58.30
65582;DHT22;52231;40.090;18.348;2022-10-16T12:54:30;24.00;57.70
65582;DHT22;52231;40.090;18.348;2022-10-16T13:03:16;24.00;59.30
65582;DHT22;52231;40.090;18.348;2022-10-16T13:05:58;23.90;59.10
65582;DHT22;52231;40.090;18.348;2022-10-16T13:08:39;23.90;60.60
65582;DHT22;52231;40.090;18.348;2022-10-16T13:17:05;24.00;60.80
65582;DHT22;52231;40.090;18.348;2022-10-16T13:27:35;23.40;61.20
65582;DHT22;52231;40.090;18.348;2022-10-16T13:30:15;23.30;61.60
65582;DHT22;52231;40.090;18.348;2022-10-16T13:32:53;23.30;61.40
65582;DHT22;52231;40.090;18.348;2022-10-16T13:35:30;23.30;61.50
65582;DHT22;52231;40.090;18.348;2022-10-16T13:38:17;23.30;62.00
65582;DHT22;52231;40.090;18.348;2022-10-16T13:46:10;23.40;60.90
65582;DHT22;52231;40.090;18.348;2022-10-16T13:48:39;23.40;60.40
65582;DHT22;52231;40.090;18.348;2022-10-16T13:51:17;23.40;60.00
65582;DHT22;52231;40.090;18.348;2022-10-16T13:53:46;23.40;60.00
65582;DHT22;52231;40.090;18.348;2022-10-16T13:56:20;23.30;60.00
65582;DHT22;52231;40.090;18.348;2022-10-16T13:59:25;23.30;60.70
65582;DHT22;52231;40.090;18.348;2022-10-16T14:01:56;23.30;60.40
65582;DHT22;52231;40.090;18.348;2022-10-16T14:04:29;23.30;59.40
65582;DHT22;52231;40.090;18.348;2022-10-16T14:06:59;23.20;60.00
65582;DHT22;52231;40.090;18.348;2022-10-16T14:09:29;23.00;59.60
65582;DHT22;52231;40.090;18.348;2022-10-16T14:12:03;22.80;60.40
65582;DHT22;52231;40.090;18.348;2022-10-16T14:14:43;22.70;60.90
65582;DHT22;52231;40.090;18.348;2022-10-16T14:17:22;22.60;61.60
65582;DHT22;52231;40.090;18.348;2022-10-16T14:19:55;22.50;62.80
65582;DHT22;52231;40.090;18.348;2022-10-16T14:22:36;22.40;63.10
65582;DHT22;52231;40.090;18.348;2022-10-16T14:25:34;22.30;63.20
65582;DHT22;52231;40.090;18.348;2022-10-16T14:28:22;22.30;62.80
65582;DHT22;52231;40.090;18.348;2022-10-16T14:33:25;22.20;63.90
65582;DHT22;52231;40.090;18.348;2022-10-16T14:38:32;22.10;64.40
65582;DHT22;52231;40.090;18.348;2022-10-16T14:41:01;22.10;64.70
65582;DHT22;52231;40.090;18.348;2022-10-16T14:43:39;22.00;64.60
65582;DHT22;52231;40.090;18.348;2022-10-16T14:46:20;21.80;64.30
65582;DHT22;52231;40.090;18.348;2022-10-16T14:48:50;21.80;65.00
65582;DHT22;52231;40.090;18.348;2022-10-16T14:51:19;21.70;64.70
65582;DHT22;52231;40.090;18.348;2022-10-16T14:53:49;21.60;64.00
65582;DHT22;52231;40.090;18.348;2022-10-16T14:56:24;21.40;64.60
65582;DHT22;52231;40.090;18.348;2022-10-16T14:58:53;21.30;66.00
65582;DHT22;52231;40.090;18.348;2022-10-16T15:01:21;21.30;66.60
65582;DHT22;52231;40.090;18.348;2022-10-16T15:03:49;21.30;67.00
65582;DHT22;52231;40.090;18.348;2022-10-16T15:06:20;21.20;67.60
65582;DHT22;52231;40.090;18.348;2022-10-16T15:08:49;21.10;67.90
65582;DHT22;52231;40.090;18.348;2022-10-16T15:11:19;21.10;68.30
65582;DHT22;52231;40.090;18.348;2022-10-16T15:13:47;21.00;68.40
65582;DHT22;52231;40.090;18.348;2022-10-16T15:16:15;21.00;69.00
65582;DHT22;52231;40.090;18.348;2022-10-16T15:18:44;20.80;68.90
65582;DHT22;52231;40.090;18.348;2022-10-16T15:21:33;20.70;69.10
65582;DHT22;52231;40.090;18.348;2022-10-16T15:24:00;20.50;69.70
65582;DHT22;52231;40.090;18.348;2022-10-16T15:26:29;20.40;70.10
65582;DHT22;52231;40.090;18.348;2022-10-16T15:28:58;20.30;70.40
65582;DHT22;52231;40.090;18.348;2022-10-16T15:31:26;20.20;70.80
65582;DHT22;52231;40.090;18.348;2022-10-16T15:33:55;20.00;70.80
65582;DHT22;52231;40.090;18.348;2022-10-16T15:36:31;20.00;70.90
65582;DHT22;52231;40.090;18.348;2022-10-16T15:39:02;19.90;70.70
65582;DHT22;52231;40.090;18.348;2022-10-16T15:41:30;19.80;70.80
65582;DHT22;52231;40.090;18.348;2022-10-16T15:43:58;19.70;71.00
65582;DHT22;52231;40.090;18.348;2022-10-16T15:46:26;19.70;71.60
65582;DHT22;52231;40.090;18.348;2022-10-16T15:48:57;19.60;72.10
65582;DHT22;52231;40.090;18.348;2022-10-16T15:51:26;19.50;72.40
65582;DHT22;52231;40.090;18.348;2022-10-16T15:53:57;19.50;72.90
65582;DHT22;52231;40.090;18.348;2022-10-16T15:56:25;19.40;73.50
65582;DHT22;52231;40.090;18.348;2022-10-16T15:58:53;19.30;73.90
65582;DHT22;52231;40.090;18.348;2022-10-16T16:01:22;19.30;74.20
65582;DHT22;52231;40.090;18.348;2022-10-16T16:03:52;19.20;74.60
65582;DHT22;52231;40.090;18.348;2022-10-16T16:06:21;19.10;75.20
65582;DHT22;52231;40.090;18.348;2022-10-16T16:08:50;19.00;75.50
65582;DHT22;52231;40.090;18.348;2022-10-16T16:11:19;18.90;75.90
65582;DHT22;52231;40.090;18.348;2022-10-16T16:13:47;18.80;76.50
65582;DHT22;52231;40.090;18.348;2022-10-16T16:16:19;18.80;77.00
65582;DHT22;52231;40.090;18.348;2022-10-16T16:18:48;18.60;77.50
65582;DHT22;52231;40.090;18.348;2022-10-16T16:21:17;18.50;77.90
65582;DHT22;52231;40.090;18.348;2022-10-16T16:23:45;18.40;78.10
65582;DHT22;52231;40.090;18.348;2022-10-16T16:26:22;18.40;78.30
65582;DHT22;52231;40.090;18.348;2022-10-16T16:28:54;18.30;78.80
65582;DHT22;52231;40.090;18.348;2022-10-16T16:31:26;18.30;79.10
65582;DHT22;52231;40.090;18.348;2022-10-16T16:33:55;18.20;79.50
65582;DHT22;52231;40.090;18.348;2022-10-16T16:36:25;18.10;79.90
65582;DHT22;52231;40.090;18.348;2022-10-16T16:38:54;18.10;80.30
65582;DHT22;52231;40.090;18.348;2022-10-16T16:41:26;18.00;80.30
65582;DHT22;52231;40.090;18.348;2022-10-16T16:44:11;18.00;80.70
65582;DHT22;52231;40.090;18.348;2022-10-16T16:46:51;17.90;81.10
65582;DHT22;52231;40.090;18.348;2022-10-16T16:49:39;17.80;81.50
65582;DHT22;52231;40.090;18.348;2022-10-16T16:52:08;17.70;82.00
65582;DHT22;52231;40.090;18.348;2022-10-16T16:54:37;17.70;82.30
65582;DHT22;52231;40.090;18.348;2022-10-16T16:57:06;17.70;82.70
65582;DHT22;52231;40.090;18.348;2022-10-16T16:59:36;17.60;82.70
65582;DHT22;52231;40.090;18.348;2022-10-16T17:02:05;17.50;82.90
65582;DHT22;52231;40.090;18.348;2022-10-16T17:04:33;17.50;83.20
65582;DHT22;52231;40.090;18.348;2022-10-16T17:07:02;17.40;83.50
65582;DHT22;52231;40.090;18.348;2022-10-16T17:09:32;17.40;83.60
65582;DHT22;52231;40.090;18.348;2022-10-16T17:12:01;17.30;83.80
65582;DHT22;52231;40.090;18.348;2022-10-16T17:14:29;17.30;83.90
65582;DHT22;52231;40.090;18.348;2022-10-16T17:16:57;17.30;84.00
65582;DHT22;52231;40.090;18.348;2022-10-16T17:19:25;17.30;84.10
65582;DHT22;52231;40.090;18.348;2022-10-16T17:21:53;17.20;84.50
65582;DHT22;52231;40.090;18.348;2022-10-16T17:24:22;17.20;84.50
65582;DHT22;52231;40.090;18.348;2022-10-16T17:26:50;17.10;84.70